Cadillac, MI

6:18 PM EST on November 12, 2019 (GMT -0500)
Wexford County

Weather History for KCAD - September, 2019

Change the Weather History Date:

Sunday, September 15, 2019

  Actual Average Record
Temperature  
Mean Temperature 63 °F -  
Max Temperature 72 °F 67 °F 82 °F (1997)
Min Temperature 54 °F 44 °F 29 °F (1949)
Degree Days  
Heating Degree Days 2    
Growing Degree Days 13 (Base 50)    
Moisture  
Dew Point 61 °F    
Average Humidity 89    
Maximum Humidity 91    
Minimum Humidity 79    
Precipitation  
Precipitation 0.00 in - - ()
Sea Level Pressure  
Sea Level Pressure 30.07 in    
Wind  
Wind Speed 3 mph (SSE)    
Max Wind Speed 12 mph    
Max Gust Speed 16 mph    
Visibility 10 miles    
Events Rain    
Averages and records for this station are not official NWS values.
T = Trace of Precipitation, MM = Missing Value Source: NWS Daily Summary

Daily Weather History Graph

Daily Weather History Graph

Search for Another Location

Airport or City:

Astronomy

Sep. 15, 2019 Rise Set
Actual Time 7:20 AM EDT 7:52 PM EDT
Civil Twilight 6:51 AM EDT 8:21 PM EDT
Nautical Twilight 6:16 AM EDT 8:56 PM EDT
Astronomical Twilight 5:41 AM EDT 9:31 PM EDT
Moon 8:57 PM EDT (9/15) 8:30 AM EDT (9/15)
Length of Visible Light 13h 30m
Length of Day
12h 32m
Full, 98% of the Moon is Illuminated
Sep 15
Full
Sep 21
Last Quarter
Sep 28
New
Oct 5
First Quarter
Oct 13
Full

Hourly Weather History & Observations

Time (EDT) Temp. Dew Point Humidity Pressure Visibility Wind Dir Wind Speed Gust Speed Precip Events Conditions
12:16 AM 54.5 °F 51.8 °F 91% 30.15 in 10.0 mi Calm Calm - N/A   Mostly Cloudy
12:35 AM 54.5 °F 51.8 °F 91% 30.14 in 10.0 mi Calm Calm - N/A   Overcast
12:36 AM 54.5 °F 51.8 °F 91% 30.14 in 10.0 mi Calm Calm - N/A   Overcast
12:55 AM 55.9 °F 53.2 °F 91% 30.14 in 10.0 mi Calm Calm - N/A   Overcast
1:19 AM 57.7 °F 55.0 °F 91% 30.14 in 10.0 mi SE 3.5 mph - N/A   Light Drizzle
1:37 AM 57.0 °F 54.3 °F 91% 30.14 in 10.0 mi Calm Calm - N/A   Overcast
1:55 AM 57.2 °F 54.5 °F 91% 30.14 in 10.0 mi Calm Calm - N/A   Overcast
1:56 AM 57.2 °F 54.5 °F 91% 30.14 in 10.0 mi Calm Calm - N/A   Overcast
2:16 AM 57.6 °F 54.9 °F 91% 30.13 in 10.0 mi Calm Calm - N/A   Overcast
2:35 AM 57.6 °F 54.9 °F 91% 30.13 in 10.0 mi Calm Calm - N/A   Overcast
2:58 AM 57.2 °F 54.5 °F 91% 30.12 in 10.0 mi Calm Calm - N/A   Overcast
3:16 AM 57.2 °F 54.5 °F 91% 30.10 in 10.0 mi East 3.5 mph - N/A   Overcast
3:35 AM 57.4 °F 54.7 °F 91% 30.08 in 10.0 mi SSE 6.9 mph - N/A   Overcast
3:55 AM 57.7 °F 55.0 °F 91% 30.10 in 10.0 mi WNW 4.6 mph - N/A Rain Rain
4:19 AM 59.0 °F 56.3 °F 91% 30.09 in 10.0 mi SE 4.6 mph - N/A Rain Light Rain
4:55 AM 58.8 °F 56.1 °F 91% 30.08 in 10.0 mi Calm Calm - N/A   Overcast
4:56 AM 58.6 °F 55.9 °F 91% 30.08 in 10.0 mi Calm Calm - N/A   Overcast
5:15 AM 58.8 °F 56.1 °F 91% 30.07 in 7.0 mi ESE 4.6 mph - N/A Rain Light Rain
5:35 AM 58.6 °F 55.9 °F 91% 30.09 in 10.0 mi NNE 11.5 mph - N/A   Overcast
5:58 AM 59.9 °F 57.2 °F 91% 30.10 in 10.0 mi ENE 4.6 mph - N/A   Overcast
6:16 AM 60.4 °F 57.6 °F 90% 30.09 in 10.0 mi ESE 8.1 mph 16.1 mph N/A   Overcast
6:35 AM 60.1 °F 57.4 °F 91% 30.09 in 10.0 mi East 5.8 mph - N/A   Overcast
6:36 AM 60.1 °F 57.4 °F 91% 30.09 in 10.0 mi East 4.6 mph - N/A   Overcast
6:55 AM 59.9 °F 57.2 °F 91% 30.09 in 10.0 mi East 3.5 mph - N/A   Overcast
7:19 AM 59.5 °F 56.8 °F 91% 30.09 in 10.0 mi East 3.5 mph - N/A   Overcast
7:37 AM 59.5 °F 56.8 °F 91% 30.08 in 10.0 mi ESE 3.5 mph - N/A   Overcast
7:55 AM 59.9 °F 57.2 °F 91% 30.08 in 10.0 mi ESE 5.8 mph - N/A   Overcast
7:56 AM 59.9 °F 57.2 °F 91% 30.08 in 10.0 mi ESE 4.6 mph - N/A   Overcast
8:15 AM 59.9 °F 57.2 °F 91% 30.09 in 10.0 mi East 5.8 mph - N/A   Overcast
8:35 AM 60.4 °F 57.7 °F 91% 30.09 in 10.0 mi ESE 5.8 mph - N/A   Overcast
8:58 AM 61.3 °F 58.6 °F 91% 30.09 in 10.0 mi ESE 4.6 mph - N/A   Overcast
9:16 AM 62.4 °F 59.7 °F 91% 30.09 in 10.0 mi Calm Calm - N/A   Overcast
9:35 AM 63.5 °F 60.8 °F 91% 30.09 in 10.0 mi Calm Calm - N/A   Overcast
9:36 AM 63.5 °F 60.8 °F 91% 30.09 in 10.0 mi Calm Calm - N/A   Overcast
9:55 AM 64.4 °F 61.7 °F 91% 30.09 in 10.0 mi SE 3.5 mph - N/A   Overcast
10:37 AM 66.9 °F 64.2 °F 91% 30.08 in 10.0 mi South 5.8 mph - N/A   Overcast
10:55 AM 67.6 °F 64.9 °F 91% 30.08 in 10.0 mi South 6.9 mph - N/A   Overcast
10:56 AM 67.8 °F 64.9 °F 90% 30.08 in 10.0 mi South 6.9 mph - N/A   Overcast
11:15 AM 68.2 °F 65.3 °F 90% 30.08 in 10.0 mi South 4.6 mph - N/A   Overcast
11:35 AM 68.2 °F 65.3 °F 90% 30.08 in 10.0 mi South 4.6 mph - N/A   Overcast
11:58 AM 68.9 °F 65.7 °F 89% 30.08 in 10.0 mi SSW 4.6 mph - N/A   Overcast
12:16 PM 68.9 °F 65.8 °F 90% 30.07 in 10.0 mi Calm Calm - N/A   Overcast
12:35 PM 69.1 °F 66.2 °F 91% 30.07 in 10.0 mi Calm Calm - N/A   Overcast
12:55 PM 69.8 °F 65.7 °F 87% 30.07 in 10.0 mi Calm Calm - N/A   Overcast
1:19 PM 68.2 °F 65.5 °F 91% 30.07 in 10.0 mi East 3.5 mph - N/A   Overcast
1:37 PM 70.0 °F 66.4 °F 88% 30.07 in 10.0 mi East 5.8 mph - N/A   Overcast
1:55 PM 70.9 °F 65.8 °F 84% 30.07 in 10.0 mi SSW 8.1 mph - N/A   Overcast
1:56 PM 71.1 °F 65.7 °F 83% 30.07 in 10.0 mi SSW 6.9 mph - N/A   Overcast
2:15 PM 71.1 °F 65.5 °F 82% 30.06 in 10.0 mi SSW 5.8 mph - N/A   Overcast
2:35 PM 70.5 °F 66.2 °F 86% 30.05 in 10.0 mi SW 9.2 mph - N/A   Overcast
2:58 PM 71.6 °F 65.8 °F 82% 30.05 in 10.0 mi SSW 8.1 mph - N/A   Overcast
3:16 PM 72.0 °F 65.7 °F 80% 30.05 in 10.0 mi SSW 5.8 mph - N/A   Overcast
3:35 PM 72.1 °F 65.3 °F 79% 30.05 in 10.0 mi South 8.1 mph - N/A   Overcast
3:55 PM 70.5 °F 65.7 °F 85% 30.04 in 10.0 mi SSW 6.9 mph - N/A   Overcast
4:19 PM 70.9 °F 65.5 °F 83% 30.03 in 10.0 mi South 4.6 mph - N/A   Overcast
4:37 PM 71.6 °F 65.3 °F 80% 30.03 in 10.0 mi South 5.8 mph - N/A   Overcast
4:55 PM 71.2 °F 65.7 °F 82% 30.03 in 10.0 mi SSE 5.8 mph - N/A   Overcast
5:15 PM 70.9 °F 66.0 °F 85% 30.03 in 10.0 mi South 6.9 mph - N/A   Overcast
5:16 PM 70.9 °F 66.0 °F 85% 30.03 in 10.0 mi South 8.1 mph - N/A   Overcast
5:35 PM 69.4 °F 66.7 °F 91% 30.03 in 10.0 mi South 6.9 mph - N/A   Overcast
5:40 PM 69.4 °F 66.6 °F 91% 30.03 in 10.0 mi South 6.9 mph - N/A   Overcast
5:58 PM 70.2 °F 67.3 °F 91% 30.03 in 10.0 mi South 5.8 mph - N/A   Overcast
6:16 PM 69.4 °F 66.6 °F 91% 30.03 in 10.0 mi South 4.6 mph - N/A   Overcast
6:35 PM 68.9 °F 66.2 °F 91% 30.03 in 10.0 mi South 6.9 mph - N/A   Overcast
6:36 PM 68.9 °F 66.2 °F 91% 30.03 in 10.0 mi South 5.8 mph - N/A   Overcast
6:55 PM 68.7 °F 65.8 °F 90% 30.03 in 10.0 mi South 4.6 mph - N/A   Overcast
6:56 PM 68.9 °F 65.8 °F 90% 30.03 in 10.0 mi South 5.8 mph - N/A   Overcast
7:19 PM 68.5 °F 65.7 °F 90% 30.03 in 10.0 mi South 3.5 mph - N/A   Overcast
7:37 PM 68.4 °F 65.5 °F 90% 30.04 in 10.0 mi South 3.5 mph - N/A   Overcast
7:55 PM 68.2 °F 65.3 °F 90% 30.04 in 10.0 mi South 3.5 mph - N/A   Overcast
7:56 PM 68.2 °F 65.3 °F 90% 30.04 in 10.0 mi South 3.5 mph - N/A   Overcast
8:15 PM 68.0 °F 65.3 °F 91% 30.04 in 10.0 mi SSE 4.6 mph - N/A   Overcast
8:35 PM 68.0 °F 64.9 °F 90% 30.04 in 10.0 mi South 5.8 mph - N/A   Overcast
8:58 PM 67.3 °F 64.4 °F 90% 30.05 in 10.0 mi Calm Calm - N/A   Overcast
9:15 PM 66.7 °F 64.0 °F 91% 30.05 in 10.0 mi Calm Calm - N/A   Overcast
9:35 PM 65.7 °F 63.0 °F 91% 30.05 in 10.0 mi SSE 3.5 mph - N/A   Overcast
9:55 PM 66.2 °F 63.3 °F 90% 30.05 in 10.0 mi SSE 3.5 mph - N/A   Overcast
10:19 PM 66.2 °F 63.1 °F 90% 30.05 in 10.0 mi SSE 3.5 mph - N/A   Overcast
10:37 PM 66.2 °F 63.5 °F 91% 30.05 in 10.0 mi SSE 3.5 mph - N/A   Overcast
10:55 PM 65.8 °F 63.1 °F 91% 30.05 in 10.0 mi Calm Calm - N/A   Overcast
10:56 PM 65.8 °F 63.1 °F 91% 30.05 in 10.0 mi Calm Calm - N/A   Overcast
11:15 PM 65.8 °F 63.1 °F 91% 30.06 in 10.0 mi Calm Calm - N/A   Overcast
11:35 PM 65.8 °F 63.0 °F 90% 30.06 in 10.0 mi Calm Calm - N/A   Overcast